Time;durP1;ratioP1;P1;durP2;ratioP2;P2;SDS_P1;SDS_P2;PMS_P1;PMS_P2;Temp;Humidity;BMP_temperature;BMP_pressure;BME280_temperature;BME280_humidity;BME280_pressure;Samples;Min_cycle;Max_cycle;Signal;HPM_P1;HPM_P2
2024/01/20 00:01:25;;;;;;;75.95;35.92;;;-3275.80;96.00;;;;;;5041634;28;20009;-75
2024/01/20 00:03:52;;;;;;;79.63;36.22;;;-3275.80;96.10;;;;;;5043716;28;20052;-81
2024/01/20 00:06:18;;;;;;;74.82;32.72;;;-3275.70;96.00;;;;;;5041640;28;20031;-79
2024/01/20 00:08:43;;;;;;;73.57;34.15;;;-3275.80;96.10;;;;;;5036739;28;20370;-76
2024/01/20 00:11:09;;;;;;;72.50;34.42;;;-3275.80;96.10;;;;;;5044689;28;20020;-76
2024/01/20 00:13:34;;;;;;;68.20;34.15;;;-3275.80;96.00;;;;;;5041397;28;20028;-76
2024/01/20 00:16:00;;;;;;;69.07;33.50;;;-3275.70;95.90;;;;;;5040518;28;20047;-76
2024/01/20 00:18:26;;;;;;;75.45;33.83;;;-3275.70;96.00;;;;;;5045190;28;20473;-80
2024/01/20 00:20:52;;;;;;;73.63;33.08;;;-3275.70;96.10;;;;;;5038051;28;20033;-76
2024/01/20 00:23:17;;;;;;;67.47;33.28;;;-3275.70;96.20;;;;;;5040498;28;20083;-79
2024/01/20 00:25:43;;;;;;;63.90;31.10;;;-3275.70;96.10;;;;;;5041473;28;20077;-75
2024/01/20 00:28:09;;;;;;;68.53;31.05;;;-3275.70;96.10;;;;;;5039008;28;20064;-76
2024/01/20 00:30:35;;;;;;;67.32;31.80;;;-3275.60;96.10;;;;;;5041517;28;20357;-75
2024/01/20 00:33:01;;;;;;;67.32;32.80;;;-3275.70;96.10;;;;;;5034405;28;20064;-76
2024/01/20 00:35:27;;;;;;;71.45;32.95;;;-3275.70;96.10;;;;;;5038622;28;20064;-75
2024/01/20 00:37:53;;;;;;;67.13;31.52;;;-3275.70;96.10;;;;;;5041556;28;20080;-78
2024/01/20 00:40:20;;;;;;;64.07;29.67;;;-3275.70;96.00;;;;;;5042804;28;20154;-74
2024/01/20 00:42:46;;;;;;;68.22;32.55;;;-3275.70;96.00;;;;;;5038769;28;20098;-74
2024/01/20 00:45:12;;;;;;;70.00;32.35;;;-3275.70;96.00;;;;;;5036678;28;20049;-75
2024/01/20 00:47:38;;;;;;;73.88;32.80;;;-3275.70;96.00;;;;;;5032338;28;20029;-74
2024/01/20 00:50:06;;;;;;;69.15;32.58;;;-3275.70;95.90;;;;;;5031352;28;20405;-75
2024/01/20 00:52:32;;;;;;;68.30;31.80;;;-3275.70;95.90;;;;;;5050175;28;20017;-78
2024/01/20 00:54:58;;;;;;;68.90;31.38;;;-3275.70;95.90;;;;;;5045324;28;20091;-74
2024/01/20 00:57:24;;;;;;;69.35;32.17;;;-3275.70;96.00;;;;;;5042690;28;20090;-77
2024/01/20 00:59:50;;;;;;;62.60;30.05;;;-3275.70;96.00;;;;;;5039411;28;20462;-74
2024/01/20 01:02:18;;;;;;;64.63;30.63;;;-3275.70;95.90;;;;;;5042855;28;20024;-76
2024/01/20 01:04:44;;;;;;;63.50;29.48;;;-3275.60;95.80;;;;;;5038246;28;20652;-79
2024/01/20 01:07:10;;;;;;;67.22;30.35;;;-3275.60;95.80;;;;;;5046810;28;20024;-74
2024/01/20 01:09:36;;;;;;;64.38;30.38;;;-3275.60;95.90;;;;;;5032606;28;20458;-76
2024/01/20 01:12:03;;;;;;;61.88;30.02;;;-3275.60;95.90;;;;;;5040215;28;20013;-74
2024/01/20 01:14:29;;;;;;;61.85;29.83;;;-3275.60;96.00;;;;;;5034047;28;20492;-75
2024/01/20 01:16:55;;;;;;;65.78;30.02;;;-3275.60;96.00;;;;;;5032563;28;20064;-74
2024/01/20 01:19:22;;;;;;;64.47;29.80;;;-3275.50;95.90;;;;;;5034574;28;20057;-75
2024/01/20 01:21:48;;;;;;;60.75;30.15;;;-3275.50;96.00;;;;;;5039822;28;20014;-74
2024/01/20 01:24:14;;;;;;;58.72;28.98;;;-3275.50;96.00;;;;;;5032974;28;20037;-74
2024/01/20 01:26:40;;;;;;;57.92;27.67;;;-3275.50;96.00;;;;;;5038080;28;20119;-76
2024/01/20 01:29:06;;;;;;;58.42;29.38;;;-3275.50;96.00;;;;;;5035456;28;20378;-75
2024/01/20 01:31:32;;;;;;;59.55;27.00;;;-3275.50;96.00;;;;;;5043818;28;20017;-75
2024/01/20 01:33:57;;;;;;;60.97;28.88;;;-3275.50;96.00;;;;;;5039739;28;20047;-74
2024/01/20 01:36:23;;;;;;;62.90;29.75;;;-3275.50;96.00;;;;;;5046482;28;20017;-74
2024/01/20 01:38:49;;;;;;;54.03;28.33;;;-3275.50;95.90;;;;;;5031664;28;20126;-73
2024/01/20 01:41:15;;;;;;;59.15;26.38;;;-3275.50;96.00;;;;;;5032344;28;20092;-74
2024/01/20 01:43:41;;;;;;;60.72;28.15;;;-3275.50;95.90;;;;;;5033026;28;20029;-74
2024/01/20 01:46:07;;;;;;;62.63;29.13;;;-3275.50;95.90;;;;;;5039723;28;20042;-74
2024/01/20 01:48:33;;;;;;;55.75;26.67;;;-3275.50;96.00;;;;;;5038519;28;20331;-74
2024/01/20 01:51:04;;;;;;;57.28;26.40;;;-3275.50;95.90;;;;;;5026916;28;20060;-74
2024/01/20 01:53:32;;;;;;;62.00;26.20;;;-3275.60;96.00;;;;;;5034072;28;20029;-76
2024/01/20 01:56:00;;;;;;;53.95;25.77;;;-3275.50;95.90;;;;;;5042753;28;20029;-74
2024/01/20 01:58:27;;;;;;;58.83;27.52;;;-3275.60;95.90;;;;;;5044177;28;20411;-75
2024/01/20 02:00:54;;;;;;;55.72;27.08;;;-3275.50;95.90;;;;;;5044010;28;20037;-75
2024/01/20 02:03:19;;;;;;;55.60;28.17;;;-3275.50;95.90;;;;;;5051400;28;20233;-79
2024/01/20 02:05:46;;;;;;;58.35;27.55;;;-3275.50;96.00;;;;;;5034805;28;20037;-76
2024/01/20 02:08:12;;;;;;;58.35;28.17;;;-3275.50;95.90;;;;;;5041912;28;20024;-74
2024/01/20 02:10:40;;;;;;;59.17;26.83;;;-3275.50;95.90;;;;;;5037320;28;20376;-75
2024/01/20 02:13:06;;;;;;;55.38;25.77;;;-3275.40;95.90;;;;;;5051722;28;20032;-75
2024/01/20 02:15:35;;;;;;;55.88;27.60;;;-3275.50;96.00;;;;;;5038878;28;20056;-73
2024/01/20 02:18:01;;;;;;;54.92;26.23;;;-3275.50;96.00;;;;;;5043938;28;20048;-73
2024/01/20 02:20:27;;;;;;;59.33;27.08;;;-3275.40;96.00;;;;;;5038121;28;20029;-75
2024/01/20 02:22:53;;;;;;;53.40;26.52;;;-3275.50;96.10;;;;;;5038085;28;20021;-78
2024/01/20 02:25:19;;;;;;;52.15;25.23;;;-3275.50;96.00;;;;;;5040413;28;20110;-73
2024/01/20 02:27:45;;;;;;;54.60;25.52;;;-3275.50;96.00;;;;;;5046869;28;20016;-73
2024/01/20 02:30:11;;;;;;;50.95;24.50;;;-3275.50;95.90;;;;;;5041487;28;20830;-74
2024/01/20 02:32:37;;;;;;;56.33;26.23;;;-3275.50;95.90;;;;;;5036714;28;20465;-73
2024/01/20 02:35:03;;;;;;;48.67;25.00;;;-3275.50;95.80;;;;;;5045810;28;20048;-77
2024/01/20 02:37:30;;;;;;;48.13;23.75;;;-3275.40;95.90;;;;;;5036329;28;20012;-75
2024/01/20 02:40:16;;;;;;;49.25;23.48;;;-3275.40;95.90;;;;;;5047769;28;20120;-73
2024/01/20 02:42:44;;;;;;;50.83;23.92;;;-3275.40;96.00;;;;;;5044446;28;20529;-78
2024/01/20 02:45:10;;;;;;;46.83;23.52;;;-3275.50;96.00;;;;;;5042758;28;20044;-74
2024/01/20 02:47:36;;;;;;;52.08;25.63;;;-3275.50;96.00;;;;;;5043776;28;20020;-74
2024/01/20 02:50:02;;;;;;;49.97;23.15;;;-3275.50;96.00;;;;;;5039194;28;20037;-73
2024/01/20 02:52:28;;;;;;;52.88;23.92;;;-3275.50;96.00;;;;;;5043399;28;20013;-74
2024/01/20 02:54:54;;;;;;;51.47;23.30;;;-3275.40;95.90;;;;;;5037924;28;20104;-76
2024/01/20 02:57:20;;;;;;;46.90;21.77;;;-3275.40;95.90;;;;;;5043438;28;20021;-78
2024/01/20 02:59:46;;;;;;;50.35;23.65;;;-3275.40;95.90;;;;;;5051125;28;20029;-76
2024/01/20 03:02:12;;;;;;;49.95;23.35;;;-3275.40;95.90;;;;;;5042800;28;20021;-76
2024/01/20 03:04:38;;;;;;;44.78;22.13;;;-3275.40;95.90;;;;;;5033439;28;20060;-75
2024/01/20 03:07:04;;;;;;;45.13;21.80;;;-3275.40;96.00;;;;;;5040310;28;20465;-75
2024/01/20 03:09:29;;;;;;;48.90;23.13;;;-3275.40;96.00;;;;;;5045120;28;20056;-76
2024/01/20 03:11:55;;;;;;;51.03;23.40;;;-3275.40;96.00;;;;;;5046109;28;20017;-75
2024/01/20 03:14:21;;;;;;;48.72;22.65;;;-3275.40;96.00;;;;;;5037225;28;20028;-75
2024/01/20 03:16:46;;;;;;;46.92;22.17;;;-3275.40;96.10;;;;;;5035929;28;20465;-75
2024/01/20 03:19:12;;;;;;;44.22;22.17;;;-3275.40;96.10;;;;;;5038033;28;20602;-75
2024/01/20 03:21:37;;;;;;;50.03;22.60;;;-3275.40;96.10;;;;;;5039558;28;20066;-74
2024/01/20 03:24:03;;;;;;;47.97;21.83;;;-3275.40;96.00;;;;;;5048633;28;20033;-75
2024/01/20 03:26:29;;;;;;;44.70;21.38;;;-3275.40;96.00;;;;;;5041103;28;20104;-77
2024/01/20 03:28:55;;;;;;;49.22;22.33;;;-3275.30;96.00;;;;;;5029777;28;20033;-74
2024/01/20 03:31:20;;;;;;;43.92;21.50;;;-3275.30;96.10;;;;;;5045200;28;20347;-75
2024/01/20 03:33:46;;;;;;;45.53;22.10;;;-3275.40;96.10;;;;;;5029185;28;20080;-74
2024/01/20 03:36:11;;;;;;;45.30;21.52;;;-3275.40;96.00;;;;;;5034847;28;20170;-74
2024/01/20 03:38:37;;;;;;;44.15;20.58;;;-3275.30;96.00;;;;;;5037080;28;20056;-75
2024/01/20 03:41:03;;;;;;;44.95;22.05;;;-3275.30;96.10;;;;;;5043146;28;20021;-75
2024/01/20 03:43:29;;;;;;;47.20;21.35;;;-3275.40;96.10;;;;;;5044974;28;20063;-75
2024/01/20 03:45:55;;;;;;;43.00;20.50;;;-3275.30;96.10;;;;;;5040319;28;20045;-75
2024/01/20 03:48:21;;;;;;;42.28;20.88;;;-3275.30;96.10;;;;;;5039430;28;20034;-75
2024/01/20 03:50:46;;;;;;;43.60;21.13;;;-3275.30;96.20;;;;;;5036304;28;20527;-75
2024/01/20 03:53:12;;;;;;;42.35;20.25;;;-3275.20;96.10;;;;;;5042902;28;20075;-74
2024/01/20 03:55:37;;;;;;;42.83;21.67;;;-3275.30;96.20;;;;;;5037160;28;20036;-78
2024/01/20 03:58:03;;;;;;;48.47;22.30;;;-3275.30;96.10;;;;;;5044689;28;20339;-75
2024/01/20 04:00:29;;;;;;;44.05;20.25;;;-3275.30;96.10;;;;;;5031094;28;20127;-75
2024/01/20 04:02:55;;;;;;;39.83;19.35;;;-3275.30;96.10;;;;;;5035708;28;20158;-75
2024/01/20 04:05:21;;;;;;;46.55;20.63;;;-3275.30;96.10;;;;;;5037126;28;20045;-75
2024/01/20 04:07:47;;;;;;;43.03;19.98;;;-3275.30;96.10;;;;;;5033184;28;20024;-73
2024/01/20 04:10:12;;;;;;;42.60;19.75;;;-3275.30;96.10;;;;;;5028647;28;20065;-74
2024/01/20 04:12:41;;;;;;;47.88;20.30;;;-3275.30;96.10;;;;;;5036737;28;20017;-75
2024/01/20 04:15:08;;;;;;;42.60;19.75;;;-3275.30;96.10;;;;;;5032777;28;20041;-79
2024/01/20 04:17:34;;;;;;;42.92;19.38;;;-3275.30;96.10;;;;;;5047236;28;20021;-74
2024/01/20 04:20:00;;;;;;;39.05;19.05;;;-3275.30;96.10;;;;;;5047397;28;20056;-75
2024/01/20 04:22:25;;;;;;;41.72;18.58;;;-3275.30;96.10;;;;;;5041176;28;20442;-75
2024/01/20 04:24:51;;;;;;;41.53;19.13;;;-3275.20;96.00;;;;;;5036202;28;20043;-74
2024/01/20 04:27:17;;;;;;;42.20;20.02;;;-3275.20;96.10;;;;;;5043545;28;20064;-75
2024/01/20 04:29:42;;;;;;;44.95;20.50;;;-3275.20;96.10;;;;;;5047572;28;20079;-75
2024/01/20 04:32:08;;;;;;;43.97;20.48;;;-3275.30;96.10;;;;;;5037346;28;20082;-74
2024/01/20 04:34:33;;;;;;;44.35;20.02;;;-3275.30;96.10;;;;;;5027961;28;20390;-74
2024/01/20 04:36:59;;;;;;;42.25;18.88;;;-3275.20;96.10;;;;;;5029834;28;20027;-75
2024/01/20 04:39:25;;;;;;;43.25;19.80;;;-3275.30;96.20;;;;;;5034388;28;20416;-75
2024/01/20 04:41:50;;;;;;;40.47;17.70;;;-3275.30;96.20;;;;;;5034999;28;20029;-74
2024/01/20 04:44:16;;;;;;;37.28;18.33;;;-3275.30;96.10;;;;;;5037130;28;20037;-74
2024/01/20 04:46:42;;;;;;;38.03;18.27;;;-3275.20;96.10;;;;;;5056237;28;20020;-73
2024/01/20 04:49:07;;;;;;;44.28;19.17;;;-3275.30;96.10;;;;;;5030752;28;20036;-76
2024/01/20 04:51:33;;;;;;;41.13;18.88;;;-3275.30;96.10;;;;;;5034172;28;20048;-74
2024/01/20 04:53:58;;;;;;;44.88;18.77;;;-3275.30;96.10;;;;;;5038142;28;20124;-75
2024/01/20 04:56:24;;;;;;;44.05;19.27;;;-3275.40;96.20;;;;;;5038546;28;20334;-74
2024/01/20 04:58:51;;;;;;;43.00;19.48;;;-3275.30;96.10;;;;;;5034355;28;20477;-75
2024/01/20 05:01:17;;;;;;;40.58;18.38;;;-3275.30;96.10;;;;;;5043217;28;20032;-75
2024/01/20 05:03:43;;;;;;;34.50;16.63;;;-3275.30;96.00;;;;;;5031808;28;20056;-75
2024/01/20 05:06:09;;;;;;;38.92;17.15;;;-3275.30;96.10;;;;;;5037937;28;20102;-75
2024/01/20 05:08:34;;;;;;;38.67;16.63;;;-3275.40;96.10;;;;;;5034079;28;20039;-77
2024/01/20 05:11:00;;;;;;;37.47;17.05;;;-3275.30;96.00;;;;;;5042088;28;20048;-75
2024/01/20 05:13:26;;;;;;;42.83;18.67;;;-3275.30;96.00;;;;;;5039386;28;20025;-77
2024/01/20 05:15:53;;;;;;;43.55;18.38;;;-3275.30;96.00;;;;;;5051971;28;20032;-75
2024/01/20 05:18:19;;;;;;;37.92;17.92;;;-3275.30;96.10;;;;;;5047018;28;20013;-76
2024/01/20 05:20:45;;;;;;;42.33;18.80;;;-3275.30;96.10;;;;;;5047879;28;20408;-78
2024/01/20 05:23:10;;;;;;;40.88;19.02;;;-3275.40;96.10;;;;;;5035158;28;20528;-74
2024/01/20 05:25:36;;;;;;;40.75;18.15;;;-3275.40;96.10;;;;;;5030889;28;20394;-75
2024/01/20 05:28:02;;;;;;;38.63;18.33;;;-3275.40;96.10;;;;;;5041975;28;20109;-75
2024/01/20 05:30:27;;;;;;;43.60;19.48;;;-3275.40;96.10;;;;;;5034574;28;20076;-75
2024/01/20 05:32:53;;;;;;;40.97;18.08;;;-3275.30;96.10;;;;;;5036669;28;20044;-75
2024/01/20 05:35:18;;;;;;;46.47;19.17;;;-3275.30;96.10;;;;;;5033223;28;20496;-75
2024/01/20 05:37:44;;;;;;;39.70;18.63;;;-3275.30;96.20;;;;;;5030926;28;20028;-77
2024/01/20 05:40:10;;;;;;;36.60;16.98;;;-3275.30;96.20;;;;;;5042265;28;20032;-77
2024/01/20 05:42:36;;;;;;;43.10;19.38;;;-3275.30;96.30;;;;;;5045246;28;20100;-78
2024/01/20 05:45:02;;;;;;;45.67;20.23;;;-3275.30;96.30;;;;;;5037137;28;20044;-75
2024/01/20 05:47:27;;;;;;;42.17;19.13;;;-3275.30;96.30;;;;;;5037783;28;20028;-75
2024/01/20 05:49:53;;;;;;;43.22;19.98;;;-3275.40;96.40;;;;;;5035897;28;20022;-75
2024/01/20 05:52:19;;;;;;;49.35;20.38;;;-3275.40;96.30;;;;;;5028585;28;20013;-75
2024/01/20 05:54:44;;;;;;;42.63;19.50;;;-3275.40;96.40;;;;;;5034255;28;20051;-76
2024/01/20 05:57:10;;;;;;;44.70;19.50;;;-3275.40;96.50;;;;;;5041001;28;20052;-77
2024/01/20 05:59:36;;;;;;;38.22;18.25;;;-3275.40;96.40;;;;;;5031295;28;20464;-75
2024/01/20 06:02:01;;;;;;;40.88;17.13;;;-3275.40;96.40;;;;;;5038466;28;20107;-75
2024/01/20 06:04:27;;;;;;;37.50;17.88;;;-3275.30;96.20;;;;;;5048617;28;20493;-76
2024/01/20 06:06:52;;;;;;;41.70;19.05;;;-3275.30;96.20;;;;;;5034718;28;20031;-75
2024/01/20 06:09:18;;;;;;;43.45;18.83;;;-3275.30;96.20;;;;;;5039088;28;20382;-75
2024/01/20 06:11:44;;;;;;;38.90;17.83;;;-3275.20;96.20;;;;;;5038813;28;20029;-75
2024/01/20 06:14:10;;;;;;;39.20;18.05;;;-3275.30;96.20;;;;;;5030177;28;20259;-75
2024/01/20 06:16:41;;;;;;;37.53;17.48;;;-3275.30;96.20;;;;;;5048893;28;20033;-76
2024/01/20 06:19:07;;;;;;;38.70;18.58;;;-3275.30;96.30;;;;;;5038765;28;20051;-75
2024/01/20 06:21:32;;;;;;;42.80;19.05;;;-3275.30;96.30;;;;;;5034210;28;20013;-75
2024/01/20 06:23:58;;;;;;;38.35;17.55;;;-3275.30;96.30;;;;;;5029180;28;20393;-76
2024/01/20 06:26:24;;;;;;;41.83;18.20;;;-3275.30;96.10;;;;;;5029644;28;20017;-75
2024/01/20 06:28:49;;;;;;;38.97;18.40;;;-3275.30;96.30;;;;;;5051497;28;20434;-76
2024/01/20 06:31:25;;;;;;;43.88;19.60;;;-3275.30;96.30;;;;;;5032235;28;20060;-76
2024/01/20 06:33:54;;;;;;;49.05;19.02;;;-3275.40;96.30;;;;;;5030562;28;20116;-75
2024/01/20 06:36:24;;;;;;;48.10;20.80;;;-3275.40;96.30;;;;;;5040395;28;20424;-75
2024/01/20 06:38:50;;;;;;;44.15;19.08;;;-3275.40;96.30;;;;;;5036988;28;20045;-75
2024/01/20 06:41:17;;;;;;;45.72;18.92;;;-3275.40;96.30;;;;;;5037981;28;20029;-75
2024/01/20 06:43:43;;;;;;;41.10;18.17;;;-3275.30;96.30;;;;;;5033710;28;20082;-75
2024/01/20 06:46:09;;;;;;;43.05;19.63;;;-3275.40;96.30;;;;;;5033205;28;20429;-74
2024/01/20 06:48:35;;;;;;;40.10;19.38;;;-3275.40;96.40;;;;;;5038142;28;20056;-75
2024/01/20 06:51:02;;;;;;;45.65;19.65;;;-3275.40;96.40;;;;;;5049048;28;20013;-74
2024/01/20 06:53:27;;;;;;;45.78;19.83;;;-3275.40;96.40;;;;;;5037786;28;20044;-74
2024/01/20 06:55:53;;;;;;;41.20;19.95;;;-3275.40;96.40;;;;;;5041641;28;20025;-74
2024/01/20 06:58:19;;;;;;;49.67;21.50;;;-3275.40;96.40;;;;;;5046894;28;20370;-74
2024/01/20 07:00:45;;;;;;;48.53;21.90;;;-3275.40;96.50;;;;;;5042772;28;20056;-75
2024/01/20 07:03:10;;;;;;;45.63;20.92;;;-3275.40;96.50;;;;;;5042271;28;20026;-75
2024/01/20 07:05:36;;;;;;;47.53;20.98;;;-3275.40;96.60;;;;;;5038630;28;20033;-74
2024/01/20 07:08:03;;;;;;;45.53;20.40;;;-3275.50;96.70;;;;;;5054385;28;20160;-75
2024/01/20 07:10:28;;;;;;;46.72;21.85;;;-3275.50;96.60;;;;;;5046343;28;20138;-76
2024/01/20 07:12:54;;;;;;;47.97;21.58;;;-3275.50;96.60;;;;;;5052816;28;20446;-76
2024/01/20 07:15:19;;;;;;;48.28;21.98;;;-3275.50;96.60;;;;;;5040225;28;20560;-76
2024/01/20 07:17:45;;;;;;;51.25;22.17;;;-3275.50;96.60;;;;;;5037438;28;20017;-76
2024/01/20 07:20:11;;;;;;;45.70;19.80;;;-3275.50;96.60;;;;;;5034747;28;20108;-75
2024/01/20 07:22:36;;;;;;;50.22;20.95;;;-3275.50;96.60;;;;;;5045531;28;20016;-76
2024/01/20 07:25:03;;;;;;;47.40;21.08;;;-3275.50;96.60;;;;;;5033420;28;20415;-76
2024/01/20 07:27:28;;;;;;;49.22;21.67;;;-3275.50;96.50;;;;;;5071611;28;20031;-75
2024/01/20 07:29:54;;;;;;;42.50;21.95;;;-3275.60;96.50;;;;;;5058697;28;20037;-75
2024/01/20 07:32:20;;;;;;;47.65;21.77;;;-3275.50;96.50;;;;;;5034211;28;20037;-75
2024/01/20 07:34:45;;;;;;;46.45;20.88;;;-3275.50;96.50;;;;;;5049231;28;20088;-75
2024/01/20 07:37:11;;;;;;;47.53;19.75;;;-3275.50;96.60;;;;;;5053913;28;20063;-75
2024/01/20 07:39:37;;;;;;;44.53;20.20;;;-3275.50;96.60;;;;;;5039410;28;20049;-76
2024/01/20 07:42:03;;;;;;;44.58;19.63;;;-3275.50;96.60;;;;;;5033253;28;20063;-75
2024/01/20 07:44:29;;;;;;;46.63;21.02;;;-3275.50;96.60;;;;;;5048249;28;20033;-75
2024/01/20 07:46:54;;;;;;;45.05;21.23;;;-3275.50;96.70;;;;;;5035309;28;20354;-77
2024/01/20 07:49:20;;;;;;;41.85;20.30;;;-3275.50;96.70;;;;;;5045383;28;20472;-75
2024/01/20 07:51:45;;;;;;;51.30;23.55;;;-3275.60;96.80;;;;;;5036091;28;20037;-75
2024/01/20 07:54:12;;;;;;;47.22;21.95;;;-3275.50;96.70;;;;;;5032572;28;20030;-74
2024/01/20 07:56:37;;;;;;;45.83;22.13;;;-3275.60;96.80;;;;;;5043240;28;20020;-74
2024/01/20 07:59:03;;;;;;;46.85;22.42;;;-3275.60;96.70;;;;;;5045826;28;20029;-75
2024/01/20 08:01:29;;;;;;;50.10;22.98;;;-3275.60;96.70;;;;;;5049179;28;20044;-77
2024/01/20 08:03:55;;;;;;;49.63;23.75;;;-3275.70;96.70;;;;;;5029907;28;20044;-74
2024/01/20 08:06:20;;;;;;;60.30;26.45;;;-3275.70;96.70;;;;;;5036681;28;20029;-74
2024/01/20 08:08:46;;;;;;;48.03;24.67;;;-3275.70;96.80;;;;;;5039842;28;20176;-74
2024/01/20 08:11:12;;;;;;;50.50;24.75;;;-3275.80;96.70;;;;;;5037790;28;20515;-74
2024/01/20 08:13:37;;;;;;;55.70;24.52;;;-3275.80;96.70;;;;;;5046393;28;20377;-74
2024/01/20 08:16:04;;;;;;;49.58;22.83;;;-3275.70;96.50;;;;;;5030684;28;20032;-77
2024/01/20 08:18:30;;;;;;;42.15;19.80;;;-3275.70;96.70;;;;;;5035194;28;20105;-76
2024/01/20 08:20:55;;;;;;;43.80;22.10;;;-3275.60;96.60;;;;;;5045800;28;20092;-74
2024/01/20 08:23:21;;;;;;;45.92;23.10;;;-3275.60;96.50;;;;;;5046385;28;20024;-74
2024/01/20 08:25:47;;;;;;;47.22;22.13;;;-3275.60;96.60;;;;;;5034740;28;20041;-80
2024/01/20 08:28:12;;;;;;;48.72;23.30;;;-3275.60;96.70;;;;;;5040522;28;20024;-74
2024/01/20 08:30:38;;;;;;;55.00;27.05;;;-3275.70;96.80;;;;;;5047383;28;20048;-75
2024/01/20 08:33:04;;;;;;;55.67;24.00;;;-3275.80;96.70;;;;;;5026230;28;20029;-75
2024/01/20 08:35:29;;;;;;;49.97;25.15;;;-3275.80;96.70;;;;;;5042023;28;20040;-80
2024/01/20 08:37:55;;;;;;;50.22;24.75;;;-3275.90;96.70;;;;;;5046848;28;20362;-74
2024/01/20 08:40:20;;;;;;;50.42;24.02;;;-3275.90;96.60;;;;;;5040382;28;20060;-74
2024/01/20 08:42:46;;;;;;;47.25;22.48;;;-3275.90;96.60;;;;;;5042151;28;20020;-75
2024/01/20 08:45:12;;;;;;;42.65;22.65;;;-3275.90;96.50;;;;;;5025450;28;20040;-75
2024/01/20 08:47:38;;;;;;;50.60;23.85;;;-3275.90;96.60;;;;;;5040629;28;20032;-72
2024/01/20 08:50:04;;;;;;;45.22;23.00;;;-3275.90;96.40;;;;;;5035118;28;20037;-75
2024/01/20 08:52:30;;;;;;;46.25;21.08;;;-3275.90;96.40;;;;;;5041137;28;20319;-72
2024/01/20 08:54:56;;;;;;;38.40;20.25;;;-3275.90;96.40;;;;;;5041678;28;20500;-73
2024/01/20 08:57:21;;;;;;;44.17;22.58;;;-3276.00;96.40;;;;;;5036426;28;20033;-72
2024/01/20 08:59:47;;;;;;;41.53;22.58;;;-3276.00;96.20;;;;;;5038414;28;20521;-73
2024/01/20 09:02:13;;;;;;;54.05;28.40;;;-3275.90;96.10;;;;;;5039196;28;20357;-72
2024/01/20 09:04:38;;;;;;;81.28;44.97;;;-3276.00;96.20;;;;;;5041488;28;20042;-72
2024/01/20 09:07:04;;;;;;;79.35;42.13;;;-3276.00;96.20;;;;;;5035397;28;20454;-72
2024/01/20 09:09:30;;;;;;;45.40;23.52;;;-3276.10;96.20;;;;;;5027917;28;20366;-72
2024/01/20 09:11:56;;;;;;;45.70;22.83;;;-3276.10;96.10;;;;;;5028392;28;20035;-73
2024/01/20 09:14:21;;;;;;;42.15;22.02;;;-3276.00;96.00;;;;;;5036408;28;20027;-73
2024/01/20 09:16:48;;;;;;;44.70;24.02;;;-3275.90;95.80;;;;;;5037689;28;20013;-72
2024/01/20 09:19:14;;;;;;;36.17;19.90;;;-3276.00;95.90;;;;;;5044387;28;20033;-72
2024/01/20 09:21:44;;;;;;;40.70;21.55;;;-3275.90;95.60;;;;;;5036525;28;20463;-74
2024/01/20 09:24:10;;;;;;;46.10;23.60;;;-3275.80;95.70;;;;;;5043658;28;20552;-70
2024/01/20 09:26:35;;;;;;;46.30;23.77;;;-3275.90;95.70;;;;;;5045998;28;20096;-72
2024/01/20 09:29:01;;;;;;;44.08;21.40;;;-3275.90;95.70;;;;;;5032784;28;20034;-75
2024/01/20 09:31:26;;;;;;;41.83;21.17;;;-3275.90;95.60;;;;;;5036643;28;20338;-72
2024/01/20 09:33:52;;;;;;;37.88;20.38;;;-3275.90;95.50;;;;;;5034156;28;20068;-72
2024/01/20 09:36:18;;;;;;;35.58;19.45;;;-3275.80;95.30;;;;;;5040981;28;20032;-73
2024/01/20 09:38:43;;;;;;;35.75;18.77;;;-3275.90;95.40;;;;;;5032830;28;20402;-72
2024/01/20 09:41:09;;;;;;;40.95;20.55;;;-3275.80;95.20;;;;;;5032527;28;20100;-70
2024/01/20 09:43:38;;;;;;;33.90;19.58;;;-3275.90;95.40;;;;;;5031758;28;20909;-70
2024/01/20 09:46:04;;;;;;;37.67;20.75;;;-3275.90;95.20;;;;;;5042227;28;20028;-70
2024/01/20 09:48:30;;;;;;;37.60;19.35;;;-3275.90;95.30;;;;;;5039991;28;20095;-70
2024/01/20 09:50:57;;;;;;;33.63;19.38;;;-3276.00;95.10;;;;;;5039090;28;20017;-70
2024/01/20 09:53:24;;;;;;;35.30;20.85;;;-3275.80;94.90;;;;;;5036620;28;20168;-70
2024/01/20 09:55:50;;;;;;;36.63;19.55;;;-3275.70;95.00;;;;;;5049214;28;20040;-71
2024/01/20 09:58:17;;;;;;;35.65;19.95;;;-3275.80;95.00;;;;;;5033069;28;20021;-70
2024/01/20 10:00:43;;;;;;;39.22;20.42;;;-3275.80;95.00;;;;;;5035689;28;20064;-70
2024/01/20 10:03:11;;;;;;;38.25;20.73;;;-3275.80;95.00;;;;;;5032509;28;20913;-70
2024/01/20 10:05:37;;;;;;;38.95;22.17;;;-3275.80;95.00;;;;;;5038996;28;20040;-70
2024/01/20 10:08:05;;;;;;;37.38;20.60;;;-3276.00;95.10;;;;;;5038071;28;20349;-70
2024/01/20 10:13:26;;;;;;;38.13;20.73;;;-3276.00;94.80;;;;;;5035194;28;20072;-70
2024/01/20 10:15:54;;;;;;;39.30;22.58;;;-3276.00;94.70;;;;;;5039489;28;20033;-69
2024/01/20 10:18:19;;;;;;;37.60;21.38;;;-3276.00;94.40;;;;;;5034362;28;20446;-71
2024/01/20 10:20:45;;;;;;;38.20;21.08;;;-3276.00;94.00;;;;;;5050338;28;20135;-71
2024/01/20 10:23:11;;;;;;;44.25;25.00;;;-3276.00;94.00;;;;;;5046424;28;20051;-71
2024/01/20 10:25:36;;;;;;;35.78;22.15;;;-3276.00;93.70;;;;;;5037201;28;20068;-70
2024/01/20 10:28:02;;;;;;;35.42;21.80;;;-3276.00;93.50;;;;;;5043061;28;20021;-71
2024/01/20 10:30:28;;;;;;;37.80;21.38;;;-3276.10;93.40;;;;;;5037110;28;20476;-69
2024/01/20 10:32:54;;;;;;;34.60;19.98;;;-3276.10;93.20;;;;;;5037949;28;20040;-70
2024/01/20 10:35:19;;;;;;;33.97;19.52;;;-3276.10;93.00;;;;;;5034649;28;20053;-70
2024/01/20 10:37:51;;;;;;;34.83;20.17;;;-3276.10;92.70;;;;;;5043542;28;20363;-70
2024/01/20 10:40:18;;;;;;;37.40;21.73;;;-3276.20;92.60;;;;;;5041948;28;20699;-70
2024/01/20 10:42:45;;;;;;;32.65;20.40;;;-3276.20;92.50;;;;;;5041431;28;20025;-70
2024/01/20 10:45:17;;;;;;;31.85;20.00;;;-3276.30;92.30;;;;;;5034978;28;21305;-68
2024/01/20 10:47:58;;;;;;;36.75;21.90;;;-3276.50;92.30;;;;;;5044881;28;20110;-70
2024/01/20 10:50:25;;;;;;;34.58;21.17;;;-3276.70;92.00;;;;;;5043341;28;20034;-69
2024/01/20 10:52:51;;;;;;;43.63;27.67;;;0.00;91.50;;;;;;5044427;28;20272;-70
2024/01/20 10:55:18;;;;;;;32.08;19.45;;;0.00;91.40;;;;;;5038317;28;20064;-69
2024/01/20 10:57:45;;;;;;;48.90;30.48;;;-3276.70;90.90;;;;;;5039753;28;20020;-69
2024/01/20 11:00:12;;;;;;;35.03;22.83;;;0.00;90.90;;;;;;5043752;28;20040;-69
2024/01/20 11:02:38;;;;;;;36.60;23.00;;;0.00;90.70;;;;;;5043482;28;20017;-71
2024/01/20 11:05:17;;;;;;;34.53;21.95;;;0.00;90.50;;;;;;5030820;28;20041;-69
2024/01/20 11:07:43;;;;;;;32.97;19.63;;;0.10;90.70;;;;;;5038105;28;20044;-69
2024/01/20 11:10:08;;;;;;;36.30;21.27;;;0.00;90.20;;;;;;5030730;28;20378;-71
2024/01/20 11:12:34;;;;;;;33.80;20.60;;;0.00;90.00;;;;;;5042240;28;20479;-69
2024/01/20 11:15:00;;;;;;;36.60;25.23;;;0.00;90.00;;;;;;5040485;28;20036;-69
2024/01/20 11:17:26;;;;;;;33.70;23.45;;;-3276.70;89.70;;;;;;5047355;28;20017;-68
2024/01/20 11:19:52;;;;;;;33.88;20.60;;;-3276.60;89.60;;;;;;5031719;28;20462;-69
2024/01/20 11:22:35;;;;;;;32.10;19.60;;;-3276.50;89.80;;;;;;5037006;28;20022;-68
2024/01/20 11:25:07;;;;;;;31.40;19.15;;;-3276.60;89.90;;;;;;5028266;28;20045;-70
2024/01/20 11:27:55;;;;;;;30.90;18.67;;;-3276.60;89.90;;;;;;5040415;28;20016;-70
2024/01/20 11:30:29;;;;;;;31.17;19.38;;;-3276.70;89.70;;;;;;5032487;28;20048;-70
2024/01/20 11:32:57;;;;;;;30.33;18.63;;;-3276.60;89.50;;;;;;5042679;28;20024;-70
2024/01/20 11:35:22;;;;;;;32.85;19.17;;;-3276.70;89.60;;;;;;5033151;28;20050;-71
2024/01/20 11:37:49;;;;;;;30.27;18.23;;;-3276.60;89.20;;;;;;5045401;28;20063;-68
2024/01/20 11:40:15;;;;;;;33.22;19.73;;;-3276.70;89.70;;;;;;5035413;28;20029;-69
2024/01/20 11:42:41;;;;;;;32.80;20.45;;;-3276.60;89.50;;;;;;5031432;28;20048;-68
2024/01/20 11:45:07;;;;;;;31.05;19.17;;;-3276.60;89.50;;;;;;5042823;28;20045;-68
2024/01/20 11:47:33;;;;;;;31.95;20.30;;;0.00;89.70;;;;;;5040814;28;20482;-69
2024/01/20 11:49:59;;;;;;;33.75;21.85;;;0.00;89.30;;;;;;5029494;28;20029;-69
2024/01/20 11:52:25;;;;;;;31.80;19.27;;;0.00;88.90;;;;;;5046370;28;20476;-69
2024/01/20 11:54:51;;;;;;;31.45;20.02;;;0.00;88.50;;;;;;5034693;28;20049;-68
2024/01/20 11:57:21;;;;;;;30.67;19.85;;;0.00;88.60;;;;;;5042666;28;20028;-68
2024/01/20 11:59:47;;;;;;;33.63;19.58;;;0.00;88.60;;;;;;5041989;28;20029;-70